sensor_id;sensor_type;location;lat;lon;timestamp;pressure;altitude;pressure_sealevel;temperature;humidity
50093;BME280;35974;47.752;10.290;2024-01-07T00:01:03;92967.16;;;0.05;100.00
50093;BME280;35974;47.752;10.290;2024-01-07T00:03:29;92974.25;;;0.03;100.00
50093;BME280;35974;47.752;10.290;2024-01-07T00:05:56;92968.16;;;-0.05;100.00
50093;BME280;35974;47.752;10.290;2024-01-07T00:08:23;92968.78;;;-0.03;100.00
50093;BME280;35974;47.752;10.290;2024-01-07T00:10:49;92955.94;;;-0.11;100.00
50093;BME280;35974;47.752;10.290;2024-01-07T00:13:19;92963.00;;;-0.05;100.00
50093;BME280;35974;47.752;10.290;2024-01-07T00:15:45;92974.25;;;-0.14;100.00
50093;BME280;35974;47.752;10.290;2024-01-07T00:18:12;92962.34;;;-0.15;100.00
50093;BME280;35974;47.752;10.290;2024-01-07T00:20:39;92984.06;;;-0.01;100.00
50093;BME280;35974;47.752;10.290;2024-01-07T00:23:09;92972.78;;;-0.08;100.00
50093;BME280;35974;47.752;10.290;2024-01-07T00:25:36;92964.59;;;-0.12;100.00
50093;BME280;35974;47.752;10.290;2024-01-07T00:28:02;92967.81;;;-0.18;100.00
50093;BME280;35974;47.752;10.290;2024-01-07T00:30:30;92966.22;;;-0.03;100.00
50093;BME280;35974;47.752;10.290;2024-01-07T00:32:56;92964.28;;;-0.01;100.00
50093;BME280;35974;47.752;10.290;2024-01-07T00:35:23;92977.78;;;0.02;100.00
50093;BME280;35974;47.752;10.290;2024-01-07T00:37:49;92968.47;;;-0.08;100.00
50093;BME280;35974;47.752;10.290;2024-01-07T00:40:16;92967.47;;;0.02;100.00
50093;BME280;35974;47.752;10.290;2024-01-07T00:42:42;92959.44;;;-0.04;100.00
50093;BME280;35974;47.752;10.290;2024-01-07T00:45:09;92979.88;;;0.06;100.00
50093;BME280;35974;47.752;10.290;2024-01-07T00:47:36;92977.13;;;0.08;100.00
50093;BME280;35974;47.752;10.290;2024-01-07T00:50:03;92972.63;;;0.02;100.00
50093;BME280;35974;47.752;10.290;2024-01-07T00:52:30;92962.00;;;0.13;100.00
50093;BME280;35974;47.752;10.290;2024-01-07T00:54:56;92971.03;;;0.09;100.00
50093;BME280;35974;47.752;10.290;2024-01-07T00:57:23;92968.47;;;0.01;100.00
50093;BME280;35974;47.752;10.290;2024-01-07T00:59:49;92961.41;;;-0.06;100.00
50093;BME280;35974;47.752;10.290;2024-01-07T01:02:16;92971.34;;;-0.03;100.00
50093;BME280;35974;47.752;10.290;2024-01-07T01:04:43;92977.78;;;0.02;100.00
50093;BME280;35974;47.752;10.290;2024-01-07T01:07:10;92991.13;;;0.13;100.00
50093;BME280;35974;47.752;10.290;2024-01-07T01:09:36;92975.53;;;0.07;100.00
50093;BME280;35974;47.752;10.290;2024-01-07T01:12:03;92966.84;;;0.08;100.00
50093;BME280;35974;47.752;10.290;2024-01-07T01:14:29;92983.72;;;0.18;100.00
50093;BME280;35974;47.752;10.290;2024-01-07T01:16:56;92973.25;;;0.28;100.00
50093;BME280;35974;47.752;10.290;2024-01-07T01:19:25;92977.78;;;0.18;100.00
50093;BME280;35974;47.752;10.290;2024-01-07T01:21:51;92986.78;;;-0.03;100.00
50093;BME280;35974;47.752;10.290;2024-01-07T01:24:18;92978.44;;;-0.05;100.00
50093;BME280;35974;47.752;10.290;2024-01-07T01:26:44;92989.03;;;0.09;100.00
50093;BME280;35974;47.752;10.290;2024-01-07T01:29:11;92979.09;;;-0.11;100.00
50093;BME280;35974;47.752;10.290;2024-01-07T01:31:37;92988.06;;;-0.15;100.00
50093;BME280;35974;47.752;10.290;2024-01-07T01:34:05;93001.25;;;0.07;100.00
50093;BME280;35974;47.752;10.290;2024-01-07T01:36:32;92973.94;;;-0.27;100.00
50093;BME280;35974;47.752;10.290;2024-01-07T01:38:58;93005.75;;;0.13;100.00
50093;BME280;35974;47.752;10.290;2024-01-07T01:41:25;92982.28;;;0.08;100.00
50093;BME280;35974;47.752;10.290;2024-01-07T01:43:51;92992.56;;;0.16;100.00
50093;BME280;35974;47.752;10.290;2024-01-07T01:46:19;92981.00;;;0.04;100.00
50093;BME280;35974;47.752;10.290;2024-01-07T01:48:45;92981.31;;;0.01;100.00
50093;BME280;35974;47.752;10.290;2024-01-07T01:51:12;92994.50;;;0.06;100.00
50093;BME280;35974;47.752;10.290;2024-01-07T01:53:38;92978.44;;;-0.05;100.00
50093;BME280;35974;47.752;10.290;2024-01-07T01:56:05;92993.88;;;0.04;100.00
50093;BME280;35974;47.752;10.290;2024-01-07T02:01:41;92980.03;;;-0.20;100.00
50093;BME280;35974;47.752;10.290;2024-01-07T02:04:08;92989.03;;;-0.08;100.00
50093;BME280;35974;47.752;10.290;2024-01-07T02:06:36;92981.00;;;-0.13;100.00
50093;BME280;35974;47.752;10.290;2024-01-07T02:09:02;92985.00;;;-0.10;100.00
50093;BME280;35974;47.752;10.290;2024-01-07T02:11:29;92977.47;;;-0.12;100.00
50093;BME280;35974;47.752;10.290;2024-01-07T02:13:56;92982.91;;;0.02;100.00
50093;BME280;35974;47.752;10.290;2024-01-07T02:16:22;92999.16;;;0.18;100.00
50093;BME280;35974;47.752;10.290;2024-01-07T02:18:49;92974.56;;;-0.01;100.00
50093;BME280;35974;47.752;10.290;2024-01-07T02:21:16;92981.97;;;0.03;100.00
50093;BME280;35974;47.752;10.290;2024-01-07T02:23:42;92988.72;;;0.12;100.00
50093;BME280;35974;47.752;10.290;2024-01-07T02:26:10;92984.69;;;0.09;100.00
50093;BME280;35974;47.752;10.290;2024-01-07T02:28:36;92974.09;;;-0.04;100.00
50093;BME280;35974;47.752;10.290;2024-01-07T02:31:03;92979.38;;;0.03;100.00
50093;BME280;35974;47.752;10.290;2024-01-07T02:33:30;92982.94;;;0.18;100.00
50093;BME280;35974;47.752;10.290;2024-01-07T02:35:57;92983.91;;;0.09;100.00
50093;BME280;35974;47.752;10.290;2024-01-07T02:38:29;92990.00;;;-0.01;100.00
50093;BME280;35974;47.752;10.290;2024-01-07T02:40:56;92985.16;;;-0.04;100.00
50093;BME280;35974;47.752;10.290;2024-01-07T02:43:22;92983.91;;;-0.08;100.00
50093;BME280;35974;47.752;10.290;2024-01-07T02:45:49;92980.69;;;-0.02;100.00
50093;BME280;35974;47.752;10.290;2024-01-07T02:48:15;92970.72;;;-0.05;100.00
50093;BME280;35974;47.752;10.290;2024-01-07T02:50:42;92978.75;;;-0.08;100.00
50093;BME280;35974;47.752;10.290;2024-01-07T02:53:22;92973.63;;;-0.08;100.00
50093;BME280;35974;47.752;10.290;2024-01-07T02:55:49;92977.47;;;-0.20;100.00
50093;BME280;35974;47.752;10.290;2024-01-07T02:58:15;92978.44;;;-0.05;100.00
50093;BME280;35974;47.752;10.290;2024-01-07T03:00:42;92984.22;;;-0.11;100.00
50093;BME280;35974;47.752;10.290;2024-01-07T03:03:08;92970.06;;;0.02;100.00
50093;BME280;35974;47.752;10.290;2024-01-07T03:05:36;92963.66;;;-0.11;100.00
50093;BME280;35974;47.752;10.290;2024-01-07T03:08:02;92977.13;;;-0.09;100.00
50093;BME280;35974;47.752;10.290;2024-01-07T03:10:29;92965.25;;;-0.18;100.00
50093;BME280;35974;47.752;10.290;2024-01-07T03:12:55;92974.88;;;-0.04;100.00
50093;BME280;35974;47.752;10.290;2024-01-07T03:15:22;92973.78;;;-0.17;100.00
50093;BME280;35974;47.752;10.290;2024-01-07T03:17:48;92973.78;;;-0.17;100.00
50093;BME280;35974;47.752;10.290;2024-01-07T03:20:15;92982.75;;;-0.22;100.00
50093;BME280;35974;47.752;10.290;2024-01-07T03:22:41;92968.13;;;-0.29;100.00
50093;BME280;35974;47.752;10.290;2024-01-07T03:25:08;92983.91;;;-0.24;100.00
50093;BME280;35974;47.752;10.290;2024-01-07T03:27:35;92973.13;;;-0.11;100.00
50093;BME280;35974;47.752;10.290;2024-01-07T03:30:01;92987.25;;;0.01;100.00
50093;BME280;35974;47.752;10.290;2024-01-07T03:32:28;92969.13;;;-0.14;100.00
50093;BME280;35974;47.752;10.290;2024-01-07T03:34:55;92967.19;;;-0.12;100.00
50093;BME280;35974;47.752;10.290;2024-01-07T03:37:21;92980.34;;;-0.07;100.00
50093;BME280;35974;47.752;10.290;2024-01-07T03:39:48;92968.47;;;-0.08;100.00
50093;BME280;35974;47.752;10.290;2024-01-07T03:42:14;92977.13;;;-0.09;100.00
50093;BME280;35974;47.752;10.290;2024-01-07T03:44:41;92977.44;;;0.05;100.00
50093;BME280;35974;47.752;10.290;2024-01-07T03:47:07;92979.72;;;-0.01;100.00
50093;BME280;35974;47.752;10.290;2024-01-07T03:49:36;92990.47;;;0.03;100.00
50093;BME280;35974;47.752;10.290;2024-01-07T03:52:05;92984.69;;;0.09;100.00
50093;BME280;35974;47.752;10.290;2024-01-07T03:54:32;92972.63;;;0.02;100.00
50093;BME280;35974;47.752;10.290;2024-01-07T03:56:58;92979.09;;;-0.11;100.00
50093;BME280;35974;47.752;10.290;2024-01-07T03:59:24;92971.69;;;-0.22;100.00
50093;BME280;35974;47.752;10.290;2024-01-07T04:01:54;92987.28;;;-0.15;100.00
50093;BME280;35974;47.752;10.290;2024-01-07T04:04:20;93002.84;;;-0.09;100.00
50093;BME280;35974;47.752;10.290;2024-01-07T04:06:52;92990.31;;;-0.28;100.00
50093;BME280;35974;47.752;10.290;2024-01-07T04:09:19;92972.63;;;-0.31;100.00
50093;BME280;35974;47.752;10.290;2024-01-07T04:11:45;93008.63;;;0.02;100.00
50093;BME280;35974;47.752;10.290;2024-01-07T04:14:15;92991.94;;;-0.19;100.00
50093;BME280;35974;47.752;10.290;2024-01-07T04:16:42;92999.66;;;-0.19;100.00
50093;BME280;35974;47.752;10.290;2024-01-07T04:19:19;92984.22;;;-0.11;100.00
50093;BME280;35974;47.752;10.290;2024-01-07T04:21:46;92969.13;;;-0.30;100.00
50093;BME280;35974;47.752;10.290;2024-01-07T04:24:13;92983.59;;;-0.21;100.00
50093;BME280;35974;47.752;10.290;2024-01-07T04:26:40;92992.88;;;-0.12;100.00
50093;BME280;35974;47.752;10.290;2024-01-07T04:29:06;92985.16;;;-0.04;100.00
50093;BME280;35974;47.752;10.290;2024-01-07T04:31:33;92992.88;;;-0.12;100.00
50093;BME280;35974;47.752;10.290;2024-01-07T04:33:59;92991.94;;;-0.19;100.00
50093;BME280;35974;47.752;10.290;2024-01-07T04:36:26;92978.75;;;-0.24;100.00
50093;BME280;35974;47.752;10.290;2024-01-07T04:38:52;92975.22;;;-0.23;100.00
50093;BME280;35974;47.752;10.290;2024-01-07T04:41:19;92994.81;;;-0.30;100.00
50093;BME280;35974;47.752;10.290;2024-01-07T04:43:45;92990.63;;;-0.23;100.00
50093;BME280;35974;47.752;10.290;2024-01-07T04:46:12;93000.59;;;-0.04;100.00
50093;BME280;35974;47.752;10.290;2024-01-07T04:48:38;92988.06;;;-0.15;100.00
50093;BME280;35974;47.752;10.290;2024-01-07T04:51:07;92999.34;;;-0.08;100.00
50093;BME280;35974;47.752;10.290;2024-01-07T04:53:34;92998.03;;;-0.12;100.00
50093;BME280;35974;47.752;10.290;2024-01-07T04:56:00;93024.06;;;0.02;100.00
50093;BME280;35974;47.752;10.290;2024-01-07T04:58:27;93025.84;;;0.09;100.00
50093;BME280;35974;47.752;10.290;2024-01-07T05:00:54;92996.09;;;-0.10;100.00
50093;BME280;35974;47.752;10.290;2024-01-07T05:03:21;93016.69;;;-0.02;100.00
50093;BME280;35974;47.752;10.290;2024-01-07T05:05:48;93017.34;;;0.01;100.00
50093;BME280;35974;47.752;10.290;2024-01-07T05:08:14;93014.75;;;0.01;100.00
50093;BME280;35974;47.752;10.290;2024-01-07T05:10:41;93019.91;;;0.09;100.00
50093;BME280;35974;47.752;10.290;2024-01-07T05:13:07;93028.72;;;0.06;100.00
50093;BME280;35974;47.752;10.290;2024-01-07T05:15:35;93011.56;;;0.07;100.00
50093;BME280;35974;47.752;10.290;2024-01-07T05:18:02;93022.78;;;0.14;100.00
50093;BME280;35974;47.752;10.290;2024-01-07T05:20:33;93008.97;;;-0.02;100.00
50093;BME280;35974;47.752;10.290;2024-01-07T05:22:59;93027.94;;;-0.03;100.00
50093;BME280;35974;47.752;10.290;2024-01-07T05:25:26;93024.72;;;-0.05;100.00
50093;BME280;35974;47.752;10.290;2024-01-07T05:27:52;93034.50;;;-0.08;100.00
50093;BME280;35974;47.752;10.290;2024-01-07T05:30:19;93038.84;;;-0.09;100.00
50093;BME280;35974;47.752;10.290;2024-01-07T05:32:45;93021.00;;;-0.19;100.00
50093;BME280;35974;47.752;10.290;2024-01-07T05:35:12;93014.09;;;-0.34;100.00
50093;BME280;35974;47.752;10.290;2024-01-07T05:37:38;93011.84;;;-0.29;100.00
50093;BME280;35974;47.752;10.290;2024-01-07T05:40:05;93022.78;;;-0.19;100.00
50093;BME280;35974;47.752;10.290;2024-01-07T05:42:32;93022.16;;;-0.13;100.00
50093;BME280;35974;47.752;10.290;2024-01-07T05:44:59;93033.41;;;-0.14;100.00
50093;BME280;35974;47.752;10.290;2024-01-07T05:47:25;93026.63;;;-0.23;100.00
50093;BME280;35974;47.752;10.290;2024-01-07T05:49:52;93037.25;;;-0.10;100.00
50093;BME280;35974;47.752;10.290;2024-01-07T05:52:19;93045.59;;;-0.24;100.00
50093;BME280;35974;47.752;10.290;2024-01-07T05:54:45;93042.06;;;-0.23;100.00
50093;BME280;35974;47.752;10.290;2024-01-07T05:57:12;93025.66;;;-0.30;100.00
50093;BME280;35974;47.752;10.290;2024-01-07T05:59:38;93039.78;;;-0.34;100.00
50093;BME280;35974;47.752;10.290;2024-01-07T06:02:05;93025.03;;;-0.41;100.00
50093;BME280;35974;47.752;10.290;2024-01-07T06:04:31;93024.34;;;-0.51;100.00
50093;BME280;35974;47.752;10.290;2024-01-07T06:06:58;93030.47;;;-0.44;100.00
50093;BME280;35974;47.752;10.290;2024-01-07T06:09:25;93004.41;;;-0.57;100.00
50093;BME280;35974;47.752;10.290;2024-01-07T06:11:51;93033.06;;;-0.35;100.00
50093;BME280;35974;47.752;10.290;2024-01-07T06:14:18;93032.44;;;-0.21;100.00
50093;BME280;35974;47.752;10.290;2024-01-07T06:16:44;93037.88;;;-0.32;100.00
50093;BME280;35974;47.752;10.290;2024-01-07T06:19:18;93050.91;;;-0.17;100.00
50093;BME280;35974;47.752;10.290;2024-01-07T06:21:45;93043.97;;;-0.42;100.00
50093;BME280;35974;47.752;10.290;2024-01-07T06:24:11;93037.88;;;-0.32;100.00
50093;BME280;35974;47.752;10.290;2024-01-07T06:26:38;93064.25;;;-0.22;100.00
50093;BME280;35974;47.752;10.290;2024-01-07T06:29:04;93043.66;;;-0.39;100.00
50093;BME280;35974;47.752;10.290;2024-01-07T06:31:31;93051.06;;;-0.19;100.00
50093;BME280;35974;47.752;10.290;2024-01-07T06:33:58;93047.50;;;-0.26;100.00
50093;BME280;35974;47.752;10.290;2024-01-07T06:36:25;93046.19;;;-0.55;100.00
50093;BME280;35974;47.752;10.290;2024-01-07T06:38:52;93066.47;;;-0.27;100.00
50093;BME280;35974;47.752;10.290;2024-01-07T06:41:19;93045.88;;;-0.44;100.00
50093;BME280;35974;47.752;10.290;2024-01-07T06:43:45;93043.34;;;-0.19;100.00
50093;BME280;35974;47.752;10.290;2024-01-07T06:46:12;93074.22;;;-0.11;100.00
50093;BME280;35974;47.752;10.290;2024-01-07T06:48:38;93061.97;;;-0.33;100.00
50093;BME280;35974;47.752;10.290;2024-01-07T06:51:09;93035.91;;;-0.55;100.00
50093;BME280;35974;47.752;10.290;2024-01-07T06:53:35;93077.75;;;-0.04;100.00
50093;BME280;35974;47.752;10.290;2024-01-07T06:56:02;93068.06;;;-0.26;100.00
50093;BME280;35974;47.752;10.290;2024-01-07T06:58:29;93043.31;;;-0.52;100.00
50093;BME280;35974;47.752;10.290;2024-01-07T07:00:55;93066.34;;;-0.17;100.00
50093;BME280;35974;47.752;10.290;2024-01-07T07:03:22;93068.06;;;-0.26;100.00
50093;BME280;35974;47.752;10.290;2024-01-07T07:05:49;92955.75;;;-1.18;100.00
50093;BME280;35974;47.752;10.290;2024-01-07T07:08:16;92891.84;;;-1.45;100.00
50093;BME280;35974;47.752;10.290;2024-01-07T07:10:42;93024.34;;;-0.51;100.00
50093;BME280;35974;47.752;10.290;2024-01-07T07:13:09;93080.94;;;-0.26;100.00
50093;BME280;35974;47.752;10.290;2024-01-07T07:15:36;93087.06;;;-0.27;100.00
50093;BME280;35974;47.752;10.290;2024-01-07T07:18:03;93047.44;;;-0.59;100.00
50093;BME280;35974;47.752;10.290;2024-01-07T07:20:29;93088.16;;;-0.30;100.00
50093;BME280;35974;47.752;10.290;2024-01-07T07:22:56;93089.94;;;-0.30;100.00
50093;BME280;35974;47.752;10.290;2024-01-07T07:25:22;93028.78;;;-0.78;100.00
50093;BME280;35974;47.752;10.290;2024-01-07T07:27:49;93088.94;;;-0.29;100.00
50093;BME280;35974;47.752;10.290;2024-01-07T07:30:15;93097.66;;;-0.30;100.00
50093;BME280;35974;47.752;10.290;2024-01-07T07:33:02;93113.09;;;-0.14;100.00
50093;BME280;35974;47.752;10.290;2024-01-07T07:35:29;93090.56;;;-0.28;100.00
50093;BME280;35974;47.752;10.290;2024-01-07T07:37:59;93086.06;;;-0.34;100.00
50093;BME280;35974;47.752;10.290;2024-01-07T07:40:25;93100.41;;;-0.15;100.00
50093;BME280;35974;47.752;10.290;2024-01-07T07:42:58;93104.56;;;-0.31;100.00
50093;BME280;35974;47.752;10.290;2024-01-07T07:45:30;93070.28;;;-0.48;100.00
50093;BME280;35974;47.752;10.290;2024-01-07T07:47:57;93127.59;;;-0.05;100.00
50093;BME280;35974;47.752;10.290;2024-01-07T07:50:25;93117.63;;;-0.08;100.00
50093;BME280;35974;47.752;10.290;2024-01-07T07:52:51;93120.53;;;-0.03;100.00
50093;BME280;35974;47.752;10.290;2024-01-07T07:55:18;93132.72;;;-0.21;100.00
50093;BME280;35974;47.752;10.290;2024-01-07T07:57:45;93126.25;;;-0.25;100.00
50093;BME280;35974;47.752;10.290;2024-01-07T08:00:13;93123.72;;;-0.17;100.00
50093;BME280;35974;47.752;10.290;2024-01-07T08:02:39;93117.00;;;-0.02;100.00
50093;BME280;35974;47.752;10.290;2024-01-07T08:05:06;93127.28;;;-0.02;100.00
50093;BME280;35974;47.752;10.290;2024-01-07T08:07:33;93122.44;;;-0.13;100.00
50093;BME280;35974;47.752;10.290;2024-01-07T08:10:00;93122.16;;;-0.02;100.00
50093;BME280;35974;47.752;10.290;2024-01-07T08:12:26;93113.69;;;-0.37;100.00
50093;BME280;35974;47.752;10.290;2024-01-07T08:14:53;93126.44;;;-0.19;100.00
50093;BME280;35974;47.752;10.290;2024-01-07T08:17:19;93128.25;;;-0.03;100.00
50093;BME280;35974;47.752;10.290;2024-01-07T08:19:46;93117.97;;;0.06;100.00
50093;BME280;35974;47.752;10.290;2024-01-07T08:22:13;93136.63;;;0.08;100.00
50093;BME280;35974;47.752;10.290;2024-01-07T08:24:40;93147.25;;;0.21;100.00
50093;BME280;35974;47.752;10.290;2024-01-07T08:27:08;93130.66;;;0.07;100.00
50093;BME280;35974;47.752;10.290;2024-01-07T08:29:35;93133.88;;;0.09;100.00
50093;BME280;35974;47.752;10.290;2024-01-07T08:32:01;93141.44;;;0.11;100.00
50093;BME280;35974;47.752;10.290;2024-01-07T08:34:28;93136.28;;;-0.06;100.00
50093;BME280;35974;47.752;10.290;2024-01-07T08:36:55;93129.88;;;0.07;100.00
50093;BME280;35974;47.752;10.290;2024-01-07T08:39:23;93147.28;;;0.38;100.00
50093;BME280;35974;47.752;10.290;2024-01-07T08:41:50;93139.56;;;0.46;100.00
50093;BME280;35974;47.752;10.290;2024-01-07T08:44:17;93149.88;;;0.46;100.00
50093;BME280;35974;47.752;10.290;2024-01-07T08:46:44;93144.34;;;0.32;100.00
50093;BME280;35974;47.752;10.290;2024-01-07T08:49:11;93155.34;;;0.51;100.00
50093;BME280;35974;47.752;10.290;2024-01-07T08:51:39;93152.75;;;0.51;100.00
50093;BME280;35974;47.752;10.290;2024-01-07T08:54:06;93149.53;;;0.49;100.00
50093;BME280;35974;47.752;10.290;2024-01-07T08:56:32;93158.84;;;0.83;100.00
50093;BME280;35974;47.752;10.290;2024-01-07T08:58:58;93151.13;;;0.66;100.00
50093;BME280;35974;47.752;10.290;2024-01-07T09:01:25;93159.84;;;0.82;100.00
50093;BME280;35974;47.752;10.290;2024-01-07T09:03:58;93172.06;;;0.63;100.00
50093;BME280;35974;47.752;10.290;2024-01-07T09:06:25;93181.06;;;0.76;100.00
50093;BME280;35974;47.752;10.290;2024-01-07T09:09:00;93164.03;;;0.91;100.00
50093;BME280;35974;47.752;10.290;2024-01-07T09:11:27;93171.59;;;1.01;100.00
50093;BME280;35974;47.752;10.290;2024-01-07T09:13:59;93165.31;;;0.62;100.00
50093;BME280;35974;47.752;10.290;2024-01-07T09:16:26;93172.72;;;0.57;100.00
50093;BME280;35974;47.752;10.290;2024-01-07T09:18:53;93168.53;;;0.72;100.00
50093;BME280;35974;47.752;10.290;2024-01-07T09:21:19;93168.47;;;1.14;100.00
50093;BME280;35974;47.752;10.290;2024-01-07T09:23:47;93182.38;;;0.96;100.00
50093;BME280;35974;47.752;10.290;2024-01-07T09:26:15;93183.50;;;0.77;100.00
50093;BME280;35974;47.752;10.290;2024-01-07T09:28:43;93181.72;;;0.53;100.00
50093;BME280;35974;47.752;10.290;2024-01-07T09:31:11;93188.50;;;0.79;100.00
50093;BME280;35974;47.752;10.290;2024-01-07T09:33:37;93174.47;;;0.73;100.00
50093;BME280;35974;47.752;10.290;2024-01-07T09:36:07;93192.00;;;0.86;100.00
50093;BME280;35974;47.752;10.290;2024-01-07T09:38:52;93206.50;;;0.95;100.00
50093;BME280;35974;47.752;10.290;2024-01-07T09:41:20;93153.38;;;0.78;100.00
50093;BME280;35974;47.752;10.290;2024-01-07T09:43:51;93208.13;;;1.04;100.00
50093;BME280;35974;47.752;10.290;2024-01-07T09:46:18;93197.16;;;1.02;100.00
50093;BME280;35974;47.752;10.290;2024-01-07T09:48:45;93198.44;;;1.06;100.00
50093;BME280;35974;47.752;10.290;2024-01-07T09:51:12;93204.72;;;1.20;100.00
50093;BME280;35974;47.752;10.290;2024-01-07T09:53:43;93187.50;;;1.13;100.00
50093;BME280;35974;47.752;10.290;2024-01-07T09:56:19;93209.06;;;1.20;100.00
50093;BME280;35974;47.752;10.290;2024-01-07T09:58:52;93201.63;;;1.41;100.00
50093;BME280;35974;47.752;10.290;2024-01-07T10:01:20;93206.78;;;1.33;100.00
50093;BME280;35974;47.752;10.290;2024-01-07T10:03:47;93198.72;;;1.36;100.00
50093;BME280;35974;47.752;10.290;2024-01-07T10:06:18;93191.28;;;1.58;100.00
50093;BME280;35974;47.752;10.290;2024-01-07T10:08:54;93202.25;;;1.52;100.00
50093;BME280;35974;47.752;10.290;2024-01-07T10:11:21;93217.06;;;1.58;100.00
50093;BME280;35974;47.752;10.290;2024-01-07T10:14:01;93196.63;;;1.48;100.00
50093;BME280;35974;47.752;10.290;2024-01-07T10:16:31;93197.56;;;1.55;100.00
50093;BME280;35974;47.752;10.290;2024-01-07T10:19:01;93203.19;;;1.59;100.00
50093;BME280;35974;47.752;10.290;2024-01-07T10:21:30;93190.66;;;1.48;100.00
50093;BME280;35974;47.752;10.290;2024-01-07T10:24:12;93198.34;;;1.56;100.00
50093;BME280;35974;47.752;10.290;2024-01-07T10:26:40;93215.59;;;1.55;100.00
50093;BME280;35974;47.752;10.290;2024-01-07T10:29:07;93193.06;;;1.49;100.00
50093;BME280;35974;47.752;10.290;2024-01-07T10:31:38;93210.28;;;1.57;100.00
50093;BME280;35974;47.752;10.290;2024-01-07T10:34:13;93203.56;;;1.39;100.00
50093;BME280;35974;47.752;10.290;2024-01-07T10:36:40;93207.09;;;1.55;100.00
50093;BME280;35974;47.752;10.290;2024-01-07T10:41:57;93214.16;;;1.53;100.00
50093;BME280;35974;47.752;10.290;2024-01-07T10:44:33;93221.91;;;1.61;100.00
50093;BME280;35974;47.752;10.290;2024-01-07T10:47:00;93209.50;;;1.56;100.00
50093;BME280;35974;47.752;10.290;2024-01-07T10:49:36;93205.78;;;1.51;100.00
50093;BME280;35974;47.752;10.290;2024-01-07T10:52:07;93191.00;;;1.28;100.00
50093;BME280;35974;47.752;10.290;2024-01-07T10:54:36;93226.09;;;1.54;100.00
50093;BME280;35974;47.752;10.290;2024-01-07T10:59:58;93210.34;;;1.40;100.00
50093;BME280;35974;47.752;10.290;2024-01-07T11:05:29;93215.31;;;1.50;100.00
50093;BME280;35974;47.752;10.290;2024-01-07T11:08:07;93203.03;;;1.52;100.00
50093;BME280;35974;47.752;10.290;2024-01-07T11:10:44;93218.78;;;1.65;100.00
50093;BME280;35974;47.752;10.290;2024-01-07T11:13:35;93202.91;;;1.45;100.00
50093;BME280;35974;47.752;10.290;2024-01-07T11:16:12;93213.31;;;1.69;100.00
50093;BME280;35974;47.752;10.290;2024-01-07T11:18:49;93216.09;;;1.51;100.00
50093;BME280;35974;47.752;10.290;2024-01-07T11:21:23;93219.78;;;1.64;100.00
50093;BME280;35974;47.752;10.290;2024-01-07T11:23:54;93202.28;;;1.43;100.00
50093;BME280;35974;47.752;10.290;2024-01-07T11:26:21;93205.78;;;1.51;100.00
50093;BME280;35974;47.752;10.290;2024-01-07T11:28:57;93198.41;;;1.39;100.00
50093;BME280;35974;47.752;10.290;2024-01-07T11:34:08;93214.78;;;1.63;100.00
50093;BME280;35974;47.752;10.290;2024-01-07T11:36:37;93198.03;;;1.59;100.00
50093;BME280;35974;47.752;10.290;2024-01-07T11:39:05;93197.38;;;1.65;100.00
50093;BME280;35974;47.752;10.290;2024-01-07T11:41:44;93193.50;;;1.69;100.00
50093;BME280;35974;47.752;10.290;2024-01-07T11:44:33;93208.28;;;1.75;100.00
50093;BME280;35974;47.752;10.290;2024-01-07T11:47:10;93199.00;;;1.66;100.00
50093;BME280;35974;47.752;10.290;2024-01-07T11:49:36;93197.06;;;1.60;100.00
50093;BME280;35974;47.752;10.290;2024-01-07T11:52:13;93208.66;;;1.56;100.00
50093;BME280;35974;47.752;10.290;2024-01-07T11:54:42;93192.25;;;1.49;100.00
50093;BME280;35974;47.752;10.290;2024-01-07T12:06:21;93042.09;;;0.26;100.00
50093;BME280;35974;47.752;10.290;2024-01-07T12:09:40;93187.63;;;1.36;100.00
50093;BME280;35974;47.752;10.290;2024-01-07T12:12:25;92982.28;;;-0.09;100.00
50093;BME280;35974;47.752;10.290;2024-01-07T12:15:12;93021.53;;;0.10;100.00
50093;BME280;35974;47.752;10.290;2024-01-07T12:21:43;93228.06;;;1.35;100.00
50093;BME280;35974;47.752;10.290;2024-01-07T12:31:42;93217.75;;;1.35;100.00
50093;BME280;35974;47.752;10.290;2024-01-07T12:34:26;93223.56;;;1.29;100.00
50093;BME280;35974;47.752;10.290;2024-01-07T12:36:54;93213.53;;;1.42;100.00
50093;BME280;35974;47.752;10.290;2024-01-07T12:39:22;93216.41;;;1.56;100.00
50093;BME280;35974;47.752;10.290;2024-01-07T12:42:06;93196.81;;;1.22;100.00
50093;BME280;35974;47.752;10.290;2024-01-07T12:44:38;93225.66;;;1.17;100.00
50093;BME280;35974;47.752;10.290;2024-01-07T12:47:05;93223.91;;;1.09;100.00
50093;BME280;35974;47.752;10.290;2024-01-07T12:49:42;93215.19;;;0.94;100.00
50093;BME280;35974;47.752;10.290;2024-01-07T12:52:16;93230.31;;;0.81;100.00
50093;BME280;35974;47.752;10.290;2024-01-07T12:54:43;93241.25;;;0.75;100.00
50093;BME280;35974;47.752;10.290;2024-01-07T12:57:14;93231.63;;;0.68;100.00
50093;BME280;35974;47.752;10.290;2024-01-07T12:59:40;93229.84;;;0.61;100.00
50093;BME280;35974;47.752;10.290;2024-01-07T13:02:11;93237.41;;;0.62;100.00
50093;BME280;35974;47.752;10.290;2024-01-07T13:04:39;93229.50;;;0.47;100.00
50093;BME280;35974;47.752;10.290;2024-01-07T13:07:07;93236.72;;;0.52;100.00
50093;BME280;35974;47.752;10.290;2024-01-07T13:09:34;93233.66;;;0.40;100.00
50093;BME280;35974;47.752;10.290;2024-01-07T13:12:00;93223.78;;;0.19;100.00
50093;BME280;35974;47.752;10.290;2024-01-07T13:14:28;93238.66;;;0.50;100.00
50093;BME280;35974;47.752;10.290;2024-01-07T13:17:04;93260.22;;;0.49;100.00
50093;BME280;35974;47.752;10.290;2024-01-07T13:19:31;93239.94;;;0.38;100.00
50093;BME280;35974;47.752;10.290;2024-01-07T13:22:06;93227.66;;;0.23;100.00
50093;BME280;35974;47.752;10.290;2024-01-07T13:24:35;93250.88;;;0.40;100.00
50093;BME280;35974;47.752;10.290;2024-01-07T13:27:01;93250.22;;;0.38;100.00